sensor_id;sensor_type;location;lat;lon;timestamp;P1;durP1;ratioP1;P2;durP2;ratioP2
27303;SDS011;14791;52.392;13.092;2024-03-02T00:01:32;20.03;;;17.90;;
27303;SDS011;14791;52.392;13.092;2024-03-02T00:04:02;20.57;;;18.50;;
27303;SDS011;14791;52.392;13.092;2024-03-02T00:06:33;22.17;;;18.83;;
27303;SDS011;14791;52.392;13.092;2024-03-02T00:09:03;21.13;;;19.07;;
27303;SDS011;14791;52.392;13.092;2024-03-02T00:11:34;19.10;;;17.30;;
27303;SDS011;14791;52.392;13.092;2024-03-02T00:14:03;20.30;;;18.43;;
27303;SDS011;14791;52.392;13.092;2024-03-02T00:16:32;21.63;;;19.33;;
27303;SDS011;14791;52.392;13.092;2024-03-02T00:19:05;21.47;;;18.90;;
27303;SDS011;14791;52.392;13.092;2024-03-02T00:21:35;19.13;;;17.13;;
27303;SDS011;14791;52.392;13.092;2024-03-02T00:24:09;19.53;;;17.63;;
27303;SDS011;14791;52.392;13.092;2024-03-02T00:26:51;19.03;;;17.17;;
27303;SDS011;14791;52.392;13.092;2024-03-02T00:29:20;19.17;;;16.97;;
27303;SDS011;14791;52.392;13.092;2024-03-02T00:31:48;19.23;;;17.33;;
27303;SDS011;14791;52.392;13.092;2024-03-02T00:34:17;22.10;;;17.57;;
27303;SDS011;14791;52.392;13.092;2024-03-02T00:36:46;21.37;;;19.17;;
27303;SDS011;14791;52.392;13.092;2024-03-02T00:39:16;20.47;;;18.43;;
27303;SDS011;14791;52.392;13.092;2024-03-02T00:41:46;20.60;;;18.60;;
27303;SDS011;14791;52.392;13.092;2024-03-02T00:44:15;22.47;;;20.30;;
27303;SDS011;14791;52.392;13.092;2024-03-02T00:46:46;21.50;;;19.13;;
27303;SDS011;14791;52.392;13.092;2024-03-02T00:49:21;22.60;;;20.40;;
27303;SDS011;14791;52.392;13.092;2024-03-02T00:51:53;23.40;;;20.97;;
27303;SDS011;14791;52.392;13.092;2024-03-02T00:54:23;22.70;;;20.50;;
27303;SDS011;14791;52.392;13.092;2024-03-02T00:56:55;24.40;;;21.37;;
27303;SDS011;14791;52.392;13.092;2024-03-02T00:59:25;22.17;;;19.93;;
27303;SDS011;14791;52.392;13.092;2024-03-02T01:01:54;22.63;;;20.33;;
27303;SDS011;14791;52.392;13.092;2024-03-02T01:04:23;24.70;;;20.67;;
27303;SDS011;14791;52.392;13.092;2024-03-02T01:06:52;22.40;;;20.20;;
27303;SDS011;14791;52.392;13.092;2024-03-02T01:09:21;22.23;;;19.97;;
27303;SDS011;14791;52.392;13.092;2024-03-02T01:11:50;21.33;;;19.23;;
27303;SDS011;14791;52.392;13.092;2024-03-02T01:14:19;22.57;;;20.20;;
27303;SDS011;14791;52.392;13.092;2024-03-02T01:16:48;21.93;;;19.83;;
27303;SDS011;14791;52.392;13.092;2024-03-02T01:19:17;22.97;;;20.60;;
27303;SDS011;14791;52.392;13.092;2024-03-02T01:21:46;22.10;;;19.07;;
27303;SDS011;14791;52.392;13.092;2024-03-02T01:24:15;21.43;;;19.33;;
27303;SDS011;14791;52.392;13.092;2024-03-02T01:26:44;20.23;;;18.13;;
27303;SDS011;14791;52.392;13.092;2024-03-02T01:29:12;20.67;;;18.43;;
27303;SDS011;14791;52.392;13.092;2024-03-02T01:31:41;22.80;;;20.33;;
27303;SDS011;14791;52.392;13.092;2024-03-02T01:34:10;22.20;;;19.37;;
27303;SDS011;14791;52.392;13.092;2024-03-02T01:36:39;20.97;;;18.77;;
27303;SDS011;14791;52.392;13.092;2024-03-02T01:39:08;21.40;;;19.13;;
27303;SDS011;14791;52.392;13.092;2024-03-02T01:41:37;20.70;;;18.70;;
27303;SDS011;14791;52.392;13.092;2024-03-02T01:44:06;20.43;;;18.40;;
27303;SDS011;14791;52.392;13.092;2024-03-02T01:46:35;20.57;;;18.48;;
27303;SDS011;14791;52.392;13.092;2024-03-02T01:49:04;19.77;;;17.77;;
27303;SDS011;14791;52.392;13.092;2024-03-02T01:51:34;21.37;;;19.10;;
27303;SDS011;14791;52.392;13.092;2024-03-02T01:54:02;20.40;;;18.53;;
27303;SDS011;14791;52.392;13.092;2024-03-02T01:56:31;19.57;;;17.83;;
27303;SDS011;14791;52.392;13.092;2024-03-02T01:59:00;21.43;;;18.80;;
27303;SDS011;14791;52.392;13.092;2024-03-02T02:01:30;20.43;;;18.33;;
27303;SDS011;14791;52.392;13.092;2024-03-02T02:03:59;19.53;;;17.67;;
27303;SDS011;14791;52.392;13.092;2024-03-02T02:06:28;21.62;;;19.50;;
27303;SDS011;14791;52.392;13.092;2024-03-02T02:08:57;21.87;;;19.67;;
27303;SDS011;14791;52.392;13.092;2024-03-02T02:11:26;19.23;;;17.43;;
27303;SDS011;14791;52.392;13.092;2024-03-02T02:13:55;22.37;;;19.73;;
27303;SDS011;14791;52.392;13.092;2024-03-02T02:16:24;19.67;;;17.60;;
27303;SDS011;14791;52.392;13.092;2024-03-02T02:18:53;20.37;;;18.17;;
27303;SDS011;14791;52.392;13.092;2024-03-02T02:21:24;19.90;;;17.97;;
27303;SDS011;14791;52.392;13.092;2024-03-02T02:23:54;19.97;;;17.43;;
27303;SDS011;14791;52.392;13.092;2024-03-02T02:26:23;19.90;;;17.13;;
27303;SDS011;14791;52.392;13.092;2024-03-02T02:28:52;21.43;;;18.70;;
27303;SDS011;14791;52.392;13.092;2024-03-02T02:31:20;20.70;;;18.43;;
27303;SDS011;14791;52.392;13.092;2024-03-02T02:33:49;18.33;;;16.53;;
27303;SDS011;14791;52.392;13.092;2024-03-02T02:36:18;18.50;;;16.67;;
27303;SDS011;14791;52.392;13.092;2024-03-02T02:38:47;17.93;;;16.03;;
27303;SDS011;14791;52.392;13.092;2024-03-02T02:41:17;20.27;;;18.30;;
27303;SDS011;14791;52.392;13.092;2024-03-02T02:43:46;19.57;;;17.30;;
27303;SDS011;14791;52.392;13.092;2024-03-02T02:46:15;18.77;;;16.87;;
27303;SDS011;14791;52.392;13.092;2024-03-02T02:48:44;18.83;;;16.93;;
27303;SDS011;14791;52.392;13.092;2024-03-02T02:51:13;19.37;;;17.47;;
27303;SDS011;14791;52.392;13.092;2024-03-02T02:53:41;18.67;;;16.93;;
27303;SDS011;14791;52.392;13.092;2024-03-02T02:56:10;20.10;;;18.10;;
27303;SDS011;14791;52.392;13.092;2024-03-02T02:58:40;20.43;;;18.27;;
27303;SDS011;14791;52.392;13.092;2024-03-02T03:01:09;19.43;;;17.57;;
27303;SDS011;14791;52.392;13.092;2024-03-02T03:03:38;19.83;;;17.97;;
27303;SDS011;14791;52.392;13.092;2024-03-02T03:06:07;19.20;;;17.17;;
27303;SDS011;14791;52.392;13.092;2024-03-02T03:08:36;19.03;;;17.03;;
27303;SDS011;14791;52.392;13.092;2024-03-02T03:11:05;18.43;;;16.70;;
27303;SDS011;14791;52.392;13.092;2024-03-02T03:13:34;20.57;;;17.25;;
27303;SDS011;14791;52.392;13.092;2024-03-02T03:16:03;18.83;;;17.07;;
27303;SDS011;14791;52.392;13.092;2024-03-02T03:18:32;20.80;;;16.87;;
27303;SDS011;14791;52.392;13.092;2024-03-02T03:21:01;20.47;;;18.33;;
27303;SDS011;14791;52.392;13.092;2024-03-02T03:23:30;19.43;;;16.87;;
27303;SDS011;14791;52.392;13.092;2024-03-02T03:25:59;19.03;;;17.23;;
27303;SDS011;14791;52.392;13.092;2024-03-02T03:28:28;18.93;;;17.13;;
27303;SDS011;14791;52.392;13.092;2024-03-02T03:30:57;19.93;;;17.97;;
27303;SDS011;14791;52.392;13.092;2024-03-02T03:33:26;20.93;;;17.73;;
27303;SDS011;14791;52.392;13.092;2024-03-02T03:35:55;19.50;;;17.60;;
27303;SDS011;14791;52.392;13.092;2024-03-02T03:38:23;19.83;;;17.83;;
27303;SDS011;14791;52.392;13.092;2024-03-02T03:40:52;18.90;;;17.00;;
27303;SDS011;14791;52.392;13.092;2024-03-02T03:43:22;21.05;;;18.87;;
27303;SDS011;14791;52.392;13.092;2024-03-02T03:45:51;22.07;;;19.90;;
27303;SDS011;14791;52.392;13.092;2024-03-02T03:48:20;20.93;;;18.80;;
27303;SDS011;14791;52.392;13.092;2024-03-02T03:50:48;22.20;;;18.70;;
27303;SDS011;14791;52.392;13.092;2024-03-02T03:53:17;24.63;;;18.90;;
27303;SDS011;14791;52.392;13.092;2024-03-02T03:55:46;20.47;;;18.30;;
27303;SDS011;14791;52.392;13.092;2024-03-02T03:58:17;19.67;;;17.75;;
27303;SDS011;14791;52.392;13.092;2024-03-02T04:00:47;20.70;;;18.77;;
27303;SDS011;14791;52.392;13.092;2024-03-02T04:03:16;20.12;;;18.27;;
27303;SDS011;14791;52.392;13.092;2024-03-02T04:05:45;21.20;;;19.20;;
27303;SDS011;14791;52.392;13.092;2024-03-02T04:08:14;21.70;;;19.53;;
27303;SDS011;14791;52.392;13.092;2024-03-02T04:10:43;20.00;;;17.97;;
27303;SDS011;14791;52.392;13.092;2024-03-02T04:13:12;21.47;;;19.23;;
27303;SDS011;14791;52.392;13.092;2024-03-02T04:15:41;20.40;;;18.43;;
27303;SDS011;14791;52.392;13.092;2024-03-02T04:18:10;19.43;;;17.33;;
27303;SDS011;14791;52.392;13.092;2024-03-02T04:20:39;17.40;;;15.67;;
27303;SDS011;14791;52.392;13.092;2024-03-02T04:23:07;21.10;;;19.13;;
27303;SDS011;14791;52.392;13.092;2024-03-02T04:25:36;20.33;;;18.23;;
27303;SDS011;14791;52.392;13.092;2024-03-02T04:28:05;19.37;;;17.37;;
27303;SDS011;14791;52.392;13.092;2024-03-02T04:30:34;19.97;;;17.77;;
27303;SDS011;14791;52.392;13.092;2024-03-02T04:33:03;19.33;;;17.33;;
27303;SDS011;14791;52.392;13.092;2024-03-02T04:35:34;19.60;;;17.67;;
27303;SDS011;14791;52.392;13.092;2024-03-02T04:38:04;18.23;;;16.47;;
27303;SDS011;14791;52.392;13.092;2024-03-02T04:40:33;18.07;;;16.17;;
27303;SDS011;14791;52.392;13.092;2024-03-02T04:43:02;19.73;;;17.63;;
27303;SDS011;14791;52.392;13.092;2024-03-02T04:45:31;19.90;;;17.13;;
27303;SDS011;14791;52.392;13.092;2024-03-02T04:48:00;21.10;;;18.87;;
27303;SDS011;14791;52.392;13.092;2024-03-02T04:50:29;19.43;;;17.53;;
27303;SDS011;14791;52.392;13.092;2024-03-02T04:52:58;20.70;;;18.57;;
27303;SDS011;14791;52.392;13.092;2024-03-02T04:55:27;20.13;;;18.23;;
27303;SDS011;14791;52.392;13.092;2024-03-02T04:57:57;19.93;;;18.00;;
27303;SDS011;14791;52.392;13.092;2024-03-02T05:00:26;22.77;;;19.03;;
27303;SDS011;14791;52.392;13.092;2024-03-02T05:02:55;22.00;;;19.70;;
27303;SDS011;14791;52.392;13.092;2024-03-02T05:05:24;20.97;;;18.77;;
27303;SDS011;14791;52.392;13.092;2024-03-02T05:07:53;19.67;;;17.73;;
27303;SDS011;14791;52.392;13.092;2024-03-02T05:10:22;18.83;;;16.83;;
27303;SDS011;14791;52.392;13.092;2024-03-02T05:12:51;19.90;;;17.87;;
27303;SDS011;14791;52.392;13.092;2024-03-02T05:15:26;20.33;;;18.37;;
27303;SDS011;14791;52.392;13.092;2024-03-02T05:17:55;22.40;;;18.00;;
27303;SDS011;14791;52.392;13.092;2024-03-02T05:20:25;24.50;;;19.60;;
27303;SDS011;14791;52.392;13.092;2024-03-02T05:22:53;20.93;;;18.83;;
27303;SDS011;14791;52.392;13.092;2024-03-02T05:25:22;21.53;;;19.27;;
27303;SDS011;14791;52.392;13.092;2024-03-02T05:27:51;22.43;;;20.00;;
27303;SDS011;14791;52.392;13.092;2024-03-02T05:30:20;23.63;;;19.73;;
27303;SDS011;14791;52.392;13.092;2024-03-02T05:32:49;22.70;;;19.37;;
27303;SDS011;14791;52.392;13.092;2024-03-02T05:35:18;20.47;;;18.30;;
27303;SDS011;14791;52.392;13.092;2024-03-02T05:37:47;20.93;;;18.83;;
27303;SDS011;14791;52.392;13.092;2024-03-02T05:40:16;20.37;;;18.37;;
27303;SDS011;14791;52.392;13.092;2024-03-02T05:42:45;18.30;;;16.70;;
27303;SDS011;14791;52.392;13.092;2024-03-02T05:45:14;18.45;;;16.80;;
27303;SDS011;14791;52.392;13.092;2024-03-02T05:47:43;19.90;;;17.30;;
27303;SDS011;14791;52.392;13.092;2024-03-02T05:50:12;19.70;;;17.77;;
27303;SDS011;14791;52.392;13.092;2024-03-02T05:52:41;20.53;;;18.53;;
27303;SDS011;14791;52.392;13.092;2024-03-02T05:55:10;19.43;;;17.43;;
27303;SDS011;14791;52.392;13.092;2024-03-02T05:57:40;19.47;;;17.57;;
27303;SDS011;14791;52.392;13.092;2024-03-02T06:00:13;19.80;;;17.90;;
27303;SDS011;14791;52.392;13.092;2024-03-02T06:02:44;20.13;;;18.03;;
27303;SDS011;14791;52.392;13.092;2024-03-02T06:05:12;19.77;;;17.77;;
27303;SDS011;14791;52.392;13.092;2024-03-02T06:07:42;18.95;;;17.10;;
27303;SDS011;14791;52.392;13.092;2024-03-02T06:10:12;19.47;;;17.63;;
27303;SDS011;14791;52.392;13.092;2024-03-02T06:12:41;21.23;;;19.13;;
27303;SDS011;14791;52.392;13.092;2024-03-02T06:15:10;18.43;;;16.67;;
27303;SDS011;14791;52.392;13.092;2024-03-02T06:17:39;18.23;;;16.60;;
27303;SDS011;14791;52.392;13.092;2024-03-02T06:20:08;20.10;;;18.10;;
27303;SDS011;14791;52.392;13.092;2024-03-02T06:22:38;20.27;;;18.17;;
27303;SDS011;14791;52.392;13.092;2024-03-02T06:25:07;19.77;;;17.93;;
27303;SDS011;14791;52.392;13.092;2024-03-02T06:27:36;20.60;;;18.60;;
27303;SDS011;14791;52.392;13.092;2024-03-02T06:30:05;20.03;;;17.97;;
27303;SDS011;14791;52.392;13.092;2024-03-02T06:32:35;20.67;;;18.67;;
27303;SDS011;14791;52.392;13.092;2024-03-02T06:35:04;20.80;;;18.87;;
27303;SDS011;14791;52.392;13.092;2024-03-02T06:37:36;18.57;;;16.67;;
27303;SDS011;14791;52.392;13.092;2024-03-02T06:40:08;22.20;;;17.77;;
27303;SDS011;14791;52.392;13.092;2024-03-02T06:42:37;19.33;;;17.37;;
27303;SDS011;14791;52.392;13.092;2024-03-02T06:45:06;19.50;;;17.45;;
27303;SDS011;14791;52.392;13.092;2024-03-02T06:47:35;18.17;;;16.33;;
27303;SDS011;14791;52.392;13.092;2024-03-02T06:50:04;18.20;;;16.47;;
27303;SDS011;14791;52.392;13.092;2024-03-02T06:52:34;17.80;;;16.02;;
27303;SDS011;14791;52.392;13.092;2024-03-02T06:55:03;17.12;;;15.53;;
27303;SDS011;14791;52.392;13.092;2024-03-02T06:57:33;19.73;;;17.63;;
27303;SDS011;14791;52.392;13.092;2024-03-02T07:00:02;19.33;;;17.27;;
27303;SDS011;14791;52.392;13.092;2024-03-02T07:02:32;19.53;;;17.37;;
27303;SDS011;14791;52.392;13.092;2024-03-02T07:05:01;19.97;;;18.03;;
27303;SDS011;14791;52.392;13.092;2024-03-02T07:07:31;19.17;;;17.43;;
27303;SDS011;14791;52.392;13.092;2024-03-02T07:10:02;20.23;;;17.70;;
27303;SDS011;14791;52.392;13.092;2024-03-02T07:12:31;20.23;;;18.07;;
27303;SDS011;14791;52.392;13.092;2024-03-02T07:15:01;17.73;;;15.87;;
27303;SDS011;14791;52.392;13.092;2024-03-02T07:17:32;18.57;;;16.67;;
27303;SDS011;14791;52.392;13.092;2024-03-02T07:20:02;17.83;;;16.03;;
27303;SDS011;14791;52.392;13.092;2024-03-02T07:22:31;20.68;;;18.65;;
27303;SDS011;14791;52.392;13.092;2024-03-02T07:25:00;23.03;;;18.73;;
27303;SDS011;14791;52.392;13.092;2024-03-02T07:27:30;19.83;;;17.90;;
27303;SDS011;14791;52.392;13.092;2024-03-02T07:30:01;18.67;;;16.80;;
27303;SDS011;14791;52.392;13.092;2024-03-02T07:32:31;18.00;;;16.25;;
27303;SDS011;14791;52.392;13.092;2024-03-02T07:35:00;19.93;;;17.10;;
27303;SDS011;14791;52.392;13.092;2024-03-02T07:37:30;18.80;;;16.90;;
27303;SDS011;14791;52.392;13.092;2024-03-02T07:39:59;17.63;;;15.93;;
27303;SDS011;14791;52.392;13.092;2024-03-02T07:42:28;16.80;;;15.30;;
27303;SDS011;14791;52.392;13.092;2024-03-02T07:44:57;20.77;;;18.27;;
27303;SDS011;14791;52.392;13.092;2024-03-02T07:47:26;19.50;;;17.60;;
27303;SDS011;14791;52.392;13.092;2024-03-02T07:49:55;18.57;;;16.60;;
27303;SDS011;14791;52.392;13.092;2024-03-02T07:52:24;17.57;;;15.97;;
27303;SDS011;14791;52.392;13.092;2024-03-02T07:54:53;18.80;;;17.00;;
27303;SDS011;14791;52.392;13.092;2024-03-02T07:57:22;17.62;;;14.78;;
27303;SDS011;14791;52.392;13.092;2024-03-02T07:59:51;18.55;;;16.85;;
27303;SDS011;14791;52.392;13.092;2024-03-02T08:02:20;18.63;;;16.83;;
27303;SDS011;14791;52.392;13.092;2024-03-02T08:04:49;17.67;;;15.97;;
27303;SDS011;14791;52.392;13.092;2024-03-02T08:07:20;19.33;;;17.50;;
27303;SDS011;14791;52.392;13.092;2024-03-02T08:09:49;19.40;;;17.52;;
27303;SDS011;14791;52.392;13.092;2024-03-02T08:12:17;20.00;;;17.87;;
27303;SDS011;14791;52.392;13.092;2024-03-02T08:14:48;17.00;;;15.38;;
27303;SDS011;14791;52.392;13.092;2024-03-02T08:17:17;18.07;;;16.20;;
27303;SDS011;14791;52.392;13.092;2024-03-02T08:19:46;18.42;;;16.65;;
27303;SDS011;14791;52.392;13.092;2024-03-02T08:22:15;18.15;;;16.42;;
27303;SDS011;14791;52.392;13.092;2024-03-02T08:24:44;18.10;;;16.40;;
27303;SDS011;14791;52.392;13.092;2024-03-02T08:27:14;18.67;;;16.80;;
27303;SDS011;14791;52.392;13.092;2024-03-02T08:29:43;15.70;;;14.10;;
27303;SDS011;14791;52.392;13.092;2024-03-02T08:32:12;18.40;;;16.57;;
27303;SDS011;14791;52.392;13.092;2024-03-02T08:34:42;18.07;;;16.42;;
27303;SDS011;14791;52.392;13.092;2024-03-02T08:37:11;21.27;;;17.98;;
27303;SDS011;14791;52.392;13.092;2024-03-02T08:39:40;18.40;;;16.73;;
27303;SDS011;14791;52.392;13.092;2024-03-02T08:42:09;17.98;;;16.25;;
27303;SDS011;14791;52.392;13.092;2024-03-02T08:44:38;17.82;;;16.17;;
27303;SDS011;14791;52.392;13.092;2024-03-02T08:47:07;18.85;;;17.02;;
27303;SDS011;14791;52.392;13.092;2024-03-02T08:49:36;16.62;;;15.08;;
27303;SDS011;14791;52.392;13.092;2024-03-02T08:52:05;18.27;;;16.30;;
27303;SDS011;14791;52.392;13.092;2024-03-02T08:54:35;17.65;;;15.85;;
27303;SDS011;14791;52.392;13.092;2024-03-02T08:57:05;19.10;;;17.17;;
27303;SDS011;14791;52.392;13.092;2024-03-02T08:59:34;20.60;;;18.62;;
27303;SDS011;14791;52.392;13.092;2024-03-02T09:02:03;19.75;;;17.87;;
27303;SDS011;14791;52.392;13.092;2024-03-02T09:04:32;19.40;;;17.32;;
27303;SDS011;14791;52.392;13.092;2024-03-02T09:07:01;19.85;;;17.55;;
27303;SDS011;14791;52.392;13.092;2024-03-02T09:09:30;18.67;;;16.55;;
27303;SDS011;14791;52.392;13.092;2024-03-02T09:12:02;18.67;;;16.70;;
27303;SDS011;14791;52.392;13.092;2024-03-02T09:14:31;19.02;;;17.12;;
27303;SDS011;14791;52.392;13.092;2024-03-02T09:17:01;18.70;;;16.97;;
27303;SDS011;14791;52.392;13.092;2024-03-02T09:19:30;18.87;;;16.77;;
27303;SDS011;14791;52.392;13.092;2024-03-02T09:21:59;17.37;;;15.63;;
27303;SDS011;14791;52.392;13.092;2024-03-02T09:24:30;18.37;;;16.48;;
27303;SDS011;14791;52.392;13.092;2024-03-02T09:27:01;18.40;;;16.50;;
27303;SDS011;14791;52.392;13.092;2024-03-02T09:29:30;17.15;;;15.50;;
27303;SDS011;14791;52.392;13.092;2024-03-02T09:31:59;17.30;;;15.80;;
27303;SDS011;14791;52.392;13.092;2024-03-02T09:34:28;18.95;;;16.93;;
27303;SDS011;14791;52.392;13.092;2024-03-02T09:36:57;18.60;;;16.73;;
27303;SDS011;14791;52.392;13.092;2024-03-02T09:39:26;17.95;;;16.15;;
27303;SDS011;14791;52.392;13.092;2024-03-02T09:41:55;18.50;;;16.77;;
27303;SDS011;14791;52.392;13.092;2024-03-02T09:44:26;16.32;;;14.73;;
27303;SDS011;14791;52.392;13.092;2024-03-02T09:46:56;15.98;;;14.33;;
27303;SDS011;14791;52.392;13.092;2024-03-02T09:49:25;17.12;;;15.43;;
27303;SDS011;14791;52.392;13.092;2024-03-02T09:51:54;16.17;;;14.53;;
27303;SDS011;14791;52.392;13.092;2024-03-02T09:54:24;17.73;;;16.02;;
27303;SDS011;14791;52.392;13.092;2024-03-02T09:56:53;17.55;;;15.90;;
27303;SDS011;14791;52.392;13.092;2024-03-02T09:59:22;17.52;;;15.85;;
27303;SDS011;14791;52.392;13.092;2024-03-02T10:02:01;16.40;;;14.93;;
27303;SDS011;14791;52.392;13.092;2024-03-02T10:04:31;16.55;;;15.13;;
27303;SDS011;14791;52.392;13.092;2024-03-02T10:07:12;16.37;;;14.87;;
27303;SDS011;14791;52.392;13.092;2024-03-02T10:09:46;16.23;;;14.83;;
27303;SDS011;14791;52.392;13.092;2024-03-02T10:12:16;15.08;;;13.90;;
27303;SDS011;14791;52.392;13.092;2024-03-02T10:14:46;15.28;;;13.95;;
27303;SDS011;14791;52.392;13.092;2024-03-02T10:17:17;16.35;;;14.87;;
27303;SDS011;14791;52.392;13.092;2024-03-02T10:19:46;12.28;;;11.38;;
27303;SDS011;14791;52.392;13.092;2024-03-02T10:22:15;15.68;;;14.15;;
27303;SDS011;14791;52.392;13.092;2024-03-02T10:24:44;17.10;;;15.10;;
27303;SDS011;14791;52.392;13.092;2024-03-02T10:27:17;16.00;;;14.50;;
27303;SDS011;14791;52.392;13.092;2024-03-02T10:29:48;15.20;;;13.80;;
27303;SDS011;14791;52.392;13.092;2024-03-02T10:32:17;15.32;;;13.85;;
27303;SDS011;14791;52.392;13.092;2024-03-02T10:34:46;15.45;;;14.00;;
27303;SDS011;14791;52.392;13.092;2024-03-02T10:37:15;14.70;;;13.30;;
27303;SDS011;14791;52.392;13.092;2024-03-02T10:39:46;14.60;;;13.38;;
27303;SDS011;14791;52.392;13.092;2024-03-02T10:42:15;13.55;;;12.43;;
27303;SDS011;14791;52.392;13.092;2024-03-02T10:44:46;15.60;;;14.10;;
27303;SDS011;14791;52.392;13.092;2024-03-02T10:47:16;15.25;;;13.85;;
27303;SDS011;14791;52.392;13.092;2024-03-02T10:49:47;15.32;;;13.83;;
27303;SDS011;14791;52.392;13.092;2024-03-02T10:52:19;14.60;;;13.40;;
27303;SDS011;14791;52.392;13.092;2024-03-02T10:54:50;15.32;;;13.90;;
27303;SDS011;14791;52.392;13.092;2024-03-02T10:57:20;19.90;;;15.90;;
27303;SDS011;14791;52.392;13.092;2024-03-02T10:59:54;15.45;;;13.95;;
27303;SDS011;14791;52.392;13.092;2024-03-02T11:02:28;15.90;;;13.83;;
27303;SDS011;14791;52.392;13.092;2024-03-02T11:04:59;14.55;;;13.30;;
27303;SDS011;14791;52.392;13.092;2024-03-02T11:07:30;14.70;;;13.50;;
27303;SDS011;14791;52.392;13.092;2024-03-02T11:10:01;14.33;;;12.95;;
27303;SDS011;14791;52.392;13.092;2024-03-02T11:12:35;15.18;;;13.88;;
27303;SDS011;14791;52.392;13.092;2024-03-02T11:15:08;13.55;;;12.28;;
27303;SDS011;14791;52.392;13.092;2024-03-02T11:17:39;14.95;;;13.58;;
27303;SDS011;14791;52.392;13.092;2024-03-02T11:20:09;12.90;;;11.80;;
27303;SDS011;14791;52.392;13.092;2024-03-02T11:22:40;13.28;;;12.05;;
27303;SDS011;14791;52.392;13.092;2024-03-02T11:25:31;13.95;;;12.53;;
27303;SDS011;14791;52.392;13.092;2024-03-02T11:33:05;16.02;;;14.43;;
27303;SDS011;14791;52.392;13.092;2024-03-02T11:35:35;13.93;;;12.73;;
27303;SDS011;14791;52.392;13.092;2024-03-02T11:38:06;13.48;;;12.28;;
27303;SDS011;14791;52.392;13.092;2024-03-02T11:40:37;12.95;;;11.93;;
27303;SDS011;14791;52.392;13.092;2024-03-02T11:43:08;14.15;;;12.95;;
27303;SDS011;14791;52.392;13.092;2024-03-02T11:45:37;13.30;;;12.10;;
27303;SDS011;14791;52.392;13.092;2024-03-02T11:48:10;14.05;;;12.85;;
27303;SDS011;14791;52.392;13.092;2024-03-02T11:50:49;16.07;;;14.28;;
27303;SDS011;14791;52.392;13.092;2024-03-02T11:53:19;15.38;;;13.85;;
27303;SDS011;14791;52.392;13.092;2024-03-02T11:55:49;13.30;;;12.10;;
27303;SDS011;14791;52.392;13.092;2024-03-02T11:58:20;14.70;;;13.55;;
27303;SDS011;14791;52.392;13.092;2024-03-02T12:00:51;14.53;;;13.18;;
27303;SDS011;14791;52.392;13.092;2024-03-02T12:03:24;13.75;;;12.70;;
27303;SDS011;14791;52.392;13.092;2024-03-02T12:05:54;13.25;;;12.25;;
27303;SDS011;14791;52.392;13.092;2024-03-02T12:08:24;12.55;;;11.68;;
27303;SDS011;14791;52.392;13.092;2024-03-02T12:10:59;12.10;;;11.20;;
27303;SDS011;14791;52.392;13.092;2024-03-02T12:13:29;12.58;;;11.48;;
27303;SDS011;14791;52.392;13.092;2024-03-02T12:15:59;11.12;;;10.15;;
27303;SDS011;14791;52.392;13.092;2024-03-02T12:18:27;12.37;;;11.48;;
27303;SDS011;14791;52.392;13.092;2024-03-02T12:20:56;11.85;;;10.85;;
27303;SDS011;14791;52.392;13.092;2024-03-02T12:23:26;11.68;;;10.68;;
27303;SDS011;14791;52.392;13.092;2024-03-02T12:25:54;12.43;;;11.43;;
27303;SDS011;14791;52.392;13.092;2024-03-02T12:28:24;12.53;;;11.53;;
27303;SDS011;14791;52.392;13.092;2024-03-02T12:30:53;12.20;;;11.10;;
27303;SDS011;14791;52.392;13.092;2024-03-02T12:33:23;10.78;;;10.08;;
27303;SDS011;14791;52.392;13.092;2024-03-02T12:35:52;11.22;;;10.43;;
27303;SDS011;14791;52.392;13.092;2024-03-02T12:38:20;9.75;;;9.05;;
27303;SDS011;14791;52.392;13.092;2024-03-02T12:40:51;11.53;;;10.58;;
27303;SDS011;14791;52.392;13.092;2024-03-02T12:43:20;10.70;;;10.00;;
27303;SDS011;14791;52.392;13.092;2024-03-02T12:45:51;12.47;;;11.48;;
27303;SDS011;14791;52.392;13.092;2024-03-02T12:48:22;11.68;;;10.70;;
27303;SDS011;14791;52.392;13.092;2024-03-02T12:50:51;11.12;;;10.25;;
27303;SDS011;14791;52.392;13.092;2024-03-02T12:53:21;12.58;;;11.48;;
27303;SDS011;14791;52.392;13.092;2024-03-02T12:55:51;11.55;;;10.68;;
27303;SDS011;14791;52.392;13.092;2024-03-02T12:58:20;10.55;;;9.83;;
27303;SDS011;14791;52.392;13.092;2024-03-02T13:00:50;11.00;;;10.13;;
27303;SDS011;14791;52.392;13.092;2024-03-02T13:03:20;10.78;;;9.88;;
27303;SDS011;14791;52.392;13.092;2024-03-02T13:05:50;9.80;;;9.13;;
27303;SDS011;14791;52.392;13.092;2024-03-02T13:08:21;9.20;;;8.53;;
27303;SDS011;14791;52.392;13.092;2024-03-02T13:10:50;10.58;;;9.88;;
27303;SDS011;14791;52.392;13.092;2024-03-02T13:13:19;9.28;;;8.78;;
27303;SDS011;14791;52.392;13.092;2024-03-02T13:15:48;9.13;;;8.43;;
27303;SDS011;14791;52.392;13.092;2024-03-02T13:18:20;9.83;;;9.08;;
27303;SDS011;14791;52.392;13.092;2024-03-02T13:20:50;10.35;;;9.48;;
27303;SDS011;14791;52.392;13.092;2024-03-02T13:23:19;9.68;;;8.98;;
27303;SDS011;14791;52.392;13.092;2024-03-02T13:25:48;9.43;;;8.78;;
27303;SDS011;14791;52.392;13.092;2024-03-02T13:28:17;9.83;;;9.23;;
27303;SDS011;14791;52.392;13.092;2024-03-02T13:30:46;10.88;;;10.13;;
27303;SDS011;14791;52.392;13.092;2024-03-02T13:33:15;10.95;;;10.15;;
27303;SDS011;14791;52.392;13.092;2024-03-02T13:35:46;10.53;;;9.55;;
27303;SDS011;14791;52.392;13.092;2024-03-02T13:38:15;9.95;;;9.25;;
27303;SDS011;14791;52.392;13.092;2024-03-02T13:40:48;11.00;;;10.25;;
27303;SDS011;14791;52.392;13.092;2024-03-02T13:43:20;13.30;;;10.55;;
27303;SDS011;14791;52.392;13.092;2024-03-02T13:45:50;10.55;;;9.60;;
27303;SDS011;14791;52.392;13.092;2024-03-02T13:48:20;10.00;;;9.30;;
27303;SDS011;14791;52.392;13.092;2024-03-02T13:50:49;9.70;;;9.00;;
27303;SDS011;14791;52.392;13.092;2024-03-02T13:53:19;10.03;;;9.23;;
27303;SDS011;14791;52.392;13.092;2024-03-02T13:55:49;10.20;;;9.40;;
27303;SDS011;14791;52.392;13.092;2024-03-02T13:58:18;8.40;;;7.90;;
27303;SDS011;14791;52.392;13.092;2024-03-02T14:00:47;8.83;;;8.13;;
27303;SDS011;14791;52.392;13.092;2024-03-02T14:03:16;7.37;;;6.95;;
27303;SDS011;14791;52.392;13.092;2024-03-02T14:05:45;7.95;;;7.25;;
27303;SDS011;14791;52.392;13.092;2024-03-02T14:08:16;7.47;;;7.08;;
27303;SDS011;14791;52.392;13.092;2024-03-02T14:10:45;6.92;;;6.35;;
27303;SDS011;14791;52.392;13.092;2024-03-02T14:13:14;7.00;;;6.60;;
27303;SDS011;14791;52.392;13.092;2024-03-02T14:15:43;8.58;;;7.80;;
27303;SDS011;14791;52.392;13.092;2024-03-02T14:18:12;7.30;;;6.87;;
27303;SDS011;14791;52.392;13.092;2024-03-02T14:20:42;9.13;;;7.45;;
27303;SDS011;14791;52.392;13.092;2024-03-02T14:23:11;7.85;;;7.15;;
27303;SDS011;14791;52.392;13.092;2024-03-02T14:25:40;7.33;;;6.75;;
27303;SDS011;14791;52.392;13.092;2024-03-02T14:28:09;7.05;;;6.67;;
27303;SDS011;14791;52.392;13.092;2024-03-02T14:30:39;6.15;;;5.85;;